createdAt,value
2018-05-06T00:00:09.085Z,4.60
2018-05-06T00:01:09.076Z,5.00
2018-05-06T00:02:09.060Z,3.00
2018-05-06T00:03:09.045Z,4.40
2018-05-06T00:04:09.045Z,4.50
2018-05-06T00:05:09.103Z,4.20
2018-05-06T00:06:09.002Z,5.40
2018-05-06T00:07:08.989Z,5.40
2018-05-06T00:08:08.978Z,4.30
2018-05-06T00:09:08.983Z,6.20
2018-05-06T00:10:08.949Z,4.30
2018-05-06T00:11:08.942Z,4.80
2018-05-06T00:12:08.922Z,5.40
2018-05-06T00:13:08.907Z,5.40
2018-05-06T00:14:08.893Z,7.00
2018-05-06T00:15:08.959Z,4.80
2018-05-06T00:16:08.864Z,3.30
2018-05-06T00:17:08.853Z,4.60
2018-05-06T00:18:08.838Z,3.60
2018-05-06T00:19:08.832Z,4.00
2018-05-06T00:20:08.828Z,4.10
2018-05-06T00:21:08.797Z,5.70
2018-05-06T00:22:08.783Z,6.00
2018-05-06T00:23:08.775Z,4.20
2018-05-06T00:24:08.756Z,3.80
2018-05-06T00:25:08.757Z,5.30
2018-05-06T00:26:08.729Z,4.80
2018-05-06T00:27:08.728Z,4.40
2018-05-06T00:28:08.699Z,4.60
2018-05-06T00:29:08.684Z,7.40
2018-05-06T00:30:08.686Z,3.10
2018-05-06T00:31:08.662Z,4.70
2018-05-06T00:32:08.660Z,4.10
2018-05-06T00:33:08.632Z,5.00
2018-05-06T00:34:08.621Z,4.80
2018-05-06T00:35:08.619Z,5.40
2018-05-06T00:36:08.591Z,5.40
2018-05-06T00:37:08.575Z,6.70
2018-05-06T00:38:08.562Z,7.60
2018-05-06T00:39:08.547Z,7.40
2018-05-06T00:40:08.535Z,6.80
2018-05-06T00:41:08.534Z,8.00
2018-05-06T00:42:08.505Z,5.60
2018-05-06T00:43:08.493Z,8.50
2018-05-06T00:44:08.492Z,6.60
2018-05-06T00:45:08.461Z,4.40
2018-05-06T00:46:08.448Z,4.80
2018-05-06T00:47:08.435Z,5.30
2018-05-06T00:48:08.438Z,4.20
2018-05-06T00:49:08.411Z,3.90
2018-05-06T00:50:08.394Z,4.50
2018-05-06T00:51:08.392Z,3.20
2018-05-06T00:52:08.369Z,5.20
2018-05-06T00:53:08.371Z,5.50
2018-05-06T00:54:08.338Z,5.10
2018-05-06T00:55:08.327Z,5.10
2018-05-06T00:56:08.322Z,3.40
2018-05-06T00:57:08.298Z,5.40
2018-05-06T00:58:08.298Z,4.80
2018-05-06T00:59:08.267Z,4.00
2018-05-06T01:00:08.256Z,3.90
2018-05-06T01:01:08.240Z,4.10
2018-05-06T01:02:08.223Z,4.60
2018-05-06T01:03:08.212Z,3.60
2018-05-06T01:04:08.211Z,5.00
2018-05-06T01:05:08.182Z,5.20
2018-05-06T01:06:08.168Z,3.70
2018-05-06T01:07:08.154Z,5.10
2018-05-06T01:08:08.143Z,3.90
2018-05-06T01:09:08.148Z,5.10
2018-05-06T01:10:08.112Z,4.20
2018-05-06T01:11:08.099Z,5.10
2018-05-06T01:12:08.089Z,4.70
2018-05-06T01:13:08.075Z,4.80
2018-05-06T01:14:08.057Z,3.50
2018-05-06T01:15:08.058Z,4.90
2018-05-06T01:16:08.023Z,4.90
2018-05-06T01:17:08.012Z,3.80
2018-05-06T01:18:07.998Z,4.20
2018-05-06T01:19:07.987Z,4.50
2018-05-06T01:20:07.967Z,4.20
2018-05-06T01:21:07.972Z,4.00
2018-05-06T01:22:07.938Z,4.30
2018-05-06T01:23:07.931Z,5.40
2018-05-06T01:24:07.909Z,3.30
2018-05-06T01:25:07.900Z,4.10
2018-05-06T01:26:07.882Z,5.90
2018-05-06T01:27:07.884Z,3.60
2018-05-06T01:28:07.860Z,5.40
2018-05-06T01:29:07.843Z,4.90
2018-05-06T01:30:07.823Z,3.20
2018-05-06T01:31:07.816Z,3.30
2018-05-06T01:32:07.801Z,4.00
2018-05-06T01:33:07.798Z,4.10
2018-05-06T01:34:07.769Z,3.50
2018-05-06T01:35:07.756Z,3.40
2018-05-06T01:36:07.752Z,3.90
2018-05-06T01:37:07.737Z,4.00
2018-05-06T01:38:07.710Z,4.40
2018-05-06T01:39:07.697Z,5.20
2018-05-06T01:40:07.684Z,3.80
2018-05-06T01:41:07.666Z,3.10
2018-05-06T01:42:07.663Z,4.70
2018-05-06T01:43:07.638Z,4.30
2018-05-06T01:44:07.625Z,3.70
2018-05-06T01:45:07.610Z,3.80
2018-05-06T01:46:07.600Z,3.70
2018-05-06T01:47:07.597Z,4.40
2018-05-06T01:48:07.586Z,4.10
2018-05-06T01:49:07.555Z,4.70
2018-05-06T01:50:07.539Z,3.70
2018-05-06T01:51:07.525Z,4.20
2018-05-06T01:52:07.508Z,3.50
2018-05-06T01:53:07.495Z,5.10
2018-05-06T01:54:07.494Z,4.10
2018-05-06T01:55:07.467Z,3.60
2018-05-06T01:56:07.452Z,4.70
2018-05-06T01:57:07.442Z,4.80
2018-05-06T01:58:07.422Z,3.10
2018-05-06T01:59:07.406Z,3.90
2018-05-06T02:00:07.407Z,4.10
2018-05-06T02:01:07.376Z,3.70
2018-05-06T02:02:07.361Z,5.50
2018-05-06T02:03:07.364Z,4.40
2018-05-06T02:04:07.344Z,3.20
2018-05-06T02:05:07.320Z,3.40
2018-05-06T02:06:07.303Z,4.50
2018-05-06T02:07:07.290Z,3.70
2018-05-06T02:08:07.284Z,4.30
2018-05-06T02:09:07.277Z,3.80
2018-05-06T02:10:07.246Z,4.20
2018-05-06T02:11:07.232Z,3.30
2018-05-06T02:12:07.219Z,4.00
2018-05-06T02:13:07.204Z,3.90
2018-05-06T02:14:07.189Z,4.50
2018-05-06T02:15:07.190Z,3.20
2018-05-06T02:16:07.160Z,3.60
2018-05-06T02:17:07.144Z,4.80
2018-05-06T02:18:07.130Z,3.00
2018-05-06T02:19:07.118Z,4.00
2018-05-06T02:20:07.115Z,3.40
2018-05-06T02:21:07.088Z,3.80
2018-05-06T02:22:07.085Z,3.90
2018-05-06T02:23:07.059Z,3.60
2018-05-06T02:24:07.044Z,4.10
2018-05-06T02:25:07.045Z,5.00
2018-05-06T02:26:07.013Z,3.50
2018-05-06T02:27:06.999Z,4.00
2018-05-06T02:28:06.984Z,4.50
2018-05-06T02:29:06.975Z,4.80
2018-05-06T02:30:06.964Z,3.20
2018-05-06T02:31:06.941Z,3.40
2018-05-06T02:32:06.926Z,3.60
2018-05-06T02:33:06.910Z,5.00
2018-05-06T02:34:06.894Z,4.40
2018-05-06T02:35:06.907Z,4.90
2018-05-06T02:36:06.871Z,5.90
2018-05-06T02:37:06.860Z,3.60
2018-05-06T02:38:06.838Z,3.40
2018-05-06T02:39:06.823Z,3.10
2018-05-06T02:40:06.808Z,3.30
2018-05-06T02:41:06.802Z,3.70
2018-05-06T02:42:06.777Z,3.20
2018-05-06T02:43:06.761Z,6.70
2018-05-06T02:44:06.749Z,4.70
2018-05-06T02:45:06.733Z,4.40
2018-05-06T02:46:06.731Z,4.70
2018-05-06T02:47:06.702Z,4.10
2018-05-06T02:48:06.689Z,5.00
2018-05-06T02:49:06.674Z,4.80
2018-05-06T02:50:06.657Z,7.70
2018-05-06T02:51:06.657Z,5.90
2018-05-06T02:52:06.635Z,3.70
2018-05-06T02:53:06.634Z,4.60
2018-05-06T02:54:06.599Z,5.00
2018-05-06T02:55:06.586Z,3.10
2018-05-06T02:56:06.585Z,3.90
2018-05-06T02:57:06.552Z,4.80
2018-05-06T02:58:06.540Z,4.40
2018-05-06T02:59:06.583Z,3.70
2018-05-06T03:00:06.509Z,4.50
2018-05-06T03:01:06.492Z,4.30
2018-05-06T03:02:06.495Z,3.70
2018-05-06T03:03:06.466Z,4.70
2018-05-06T03:04:06.450Z,4.40
2018-05-06T03:05:06.435Z,4.90
2018-05-06T03:06:06.420Z,3.70
2018-05-06T03:07:06.427Z,4.10
2018-05-06T03:08:06.389Z,4.90
2018-05-06T03:09:06.376Z,3.40
2018-05-06T03:10:06.361Z,4.90
2018-05-06T03:11:06.344Z,4.70
2018-05-06T03:12:06.333Z,3.20
2018-05-06T03:13:06.331Z,4.00
2018-05-06T03:14:06.302Z,3.70
2018-05-06T03:15:06.283Z,5.70
2018-05-06T03:16:06.269Z,4.60
2018-05-06T03:17:06.253Z,3.50
2018-05-06T03:18:06.255Z,2.90
2018-05-06T03:19:06.225Z,4.70
2018-05-06T03:20:06.212Z,4.20
2018-05-06T03:21:06.196Z,6.40
2018-05-06T03:22:06.175Z,4.40
2018-05-06T03:23:06.188Z,4.10
2018-05-06T03:24:06.148Z,3.90
2018-05-06T03:25:06.133Z,3.90
2018-05-06T03:26:06.117Z,5.10
2018-05-06T03:27:06.105Z,8.10
2018-05-06T03:28:06.089Z,3.80
2018-05-06T03:29:06.092Z,3.80
2018-05-06T03:30:06.055Z,5.70
2018-05-06T03:31:06.044Z,4.20
2018-05-06T03:32:06.029Z,5.10
2018-05-06T03:33:06.023Z,5.00
2018-05-06T03:34:05.997Z,4.60
2018-05-06T03:35:05.986Z,5.20
2018-05-06T03:36:05.985Z,5.40
2018-05-06T03:37:05.953Z,4.00
2018-05-06T03:38:05.935Z,4.10
2018-05-06T03:39:05.934Z,5.40
2018-05-06T03:40:05.904Z,3.40
2018-05-06T03:41:05.902Z,4.40
2018-05-06T03:42:05.875Z,3.70
2018-05-06T03:43:05.858Z,3.70
2018-05-06T03:44:05.845Z,3.50
2018-05-06T03:45:05.839Z,4.70
2018-05-06T03:46:05.812Z,4.30
2018-05-06T03:47:05.796Z,5.70
2018-05-06T03:48:05.783Z,4.80
2018-05-06T03:49:05.768Z,4.50
2018-05-06T03:50:05.765Z,4.50
2018-05-06T03:51:05.750Z,4.10
2018-05-06T03:52:05.741Z,3.50
2018-05-06T03:53:05.707Z,4.20
2018-05-06T03:54:05.690Z,3.30
2018-05-06T03:55:05.675Z,6.20
2018-05-06T03:56:05.659Z,4.80
2018-05-06T03:57:05.645Z,4.40
2018-05-06T03:58:05.648Z,4.60
2018-05-06T03:59:05.612Z,3.50
2018-05-06T04:00:05.599Z,4.50
2018-05-06T04:01:05.594Z,4.80
2018-05-06T04:02:05.597Z,6.10
2018-05-06T04:03:05.571Z,6.50
2018-05-06T04:04:05.537Z,6.20
2018-05-06T04:05:05.523Z,5.10
2018-05-06T04:06:05.502Z,4.70
2018-05-06T04:07:05.490Z,6.70
2018-05-06T04:08:05.493Z,7.20
2018-05-06T04:09:05.463Z,7.10
2018-05-06T04:10:05.446Z,8.60
2018-05-06T04:11:05.428Z,6.80
2018-05-06T04:12:05.429Z,6.90
2018-05-06T04:13:05.415Z,7.30
2018-05-06T04:14:05.378Z,6.30
2018-05-06T04:15:05.368Z,11.40
2018-05-06T04:16:05.349Z,11.20
2018-05-06T04:17:05.351Z,9.90
2018-05-06T04:18:05.331Z,10.10
2018-05-06T04:19:05.323Z,10.90
2018-05-06T04:20:05.290Z,8.50
2018-05-06T04:21:05.276Z,8.60
2018-05-06T04:22:05.263Z,10.00
2018-05-06T04:23:05.244Z,12.30
2018-05-06T04:24:05.241Z,19.00
2018-05-06T04:25:05.212Z,15.40
2018-05-06T04:26:05.199Z,12.10
2018-05-06T04:27:05.185Z,9.60
2018-05-06T04:28:05.168Z,7.10
2018-05-06T04:29:05.168Z,6.00
2018-05-06T04:30:05.137Z,12.80
2018-05-06T04:31:05.137Z,17.20
2018-05-06T04:32:05.108Z,16.80
2018-05-06T04:33:05.095Z,9.80
2018-05-06T04:34:05.079Z,9.50
2018-05-06T04:35:05.067Z,5.80
2018-05-06T04:36:05.065Z,3.80
2018-05-06T04:37:05.038Z,4.90
2018-05-06T04:38:05.017Z,4.10
2018-05-06T04:39:05.007Z,5.30
2018-05-06T04:40:04.990Z,7.00
2018-05-06T04:41:04.992Z,5.20
2018-05-06T04:42:04.960Z,5.30
2018-05-06T04:43:04.946Z,6.40
2018-05-06T04:44:04.932Z,5.10
2018-05-06T04:45:04.922Z,4.90
2018-05-06T04:46:04.903Z,5.40
2018-05-06T04:47:04.903Z,5.00
2018-05-06T04:48:04.885Z,4.10
2018-05-06T04:49:04.859Z,4.50
2018-05-06T04:50:04.858Z,4.00
2018-05-06T04:51:04.833Z,4.70
2018-05-06T04:52:04.817Z,5.30
2018-05-06T04:53:04.801Z,5.00
2018-05-06T04:54:04.784Z,5.10
2018-05-06T04:55:04.771Z,5.40
2018-05-06T04:56:04.772Z,4.70
2018-05-06T04:57:04.742Z,4.50
2018-05-06T04:58:04.743Z,5.30
2018-05-06T04:59:04.713Z,3.80
2018-05-06T05:00:04.698Z,4.80
2018-05-06T05:01:04.685Z,5.40
2018-05-06T05:02:04.668Z,5.20
2018-05-06T05:03:04.670Z,7.00
2018-05-06T05:04:04.645Z,5.30
2018-05-06T05:05:04.628Z,4.70
2018-05-06T05:06:04.611Z,3.50
2018-05-06T05:07:04.596Z,5.70
2018-05-06T05:08:04.596Z,4.80
2018-05-06T05:09:04.568Z,4.90
2018-05-06T05:10:04.566Z,5.10
2018-05-06T05:11:04.541Z,5.20
2018-05-06T05:12:04.523Z,5.80
2018-05-06T05:13:04.510Z,4.60
2018-05-06T05:14:04.494Z,5.10
2018-05-06T05:15:04.496Z,5.30
2018-05-06T05:16:04.485Z,5.40
2018-05-06T05:17:04.450Z,5.00
2018-05-06T05:18:04.438Z,6.20
2018-05-06T05:19:04.420Z,5.00
2018-05-06T05:20:04.405Z,4.70
2018-05-06T05:21:04.409Z,5.60
2018-05-06T05:22:04.378Z,4.80
2018-05-06T05:23:04.360Z,6.00
2018-05-06T05:24:04.349Z,6.00
2018-05-06T05:25:04.333Z,5.20
2018-05-06T05:26:04.333Z,4.10
2018-05-06T05:27:04.322Z,5.00
2018-05-06T05:28:04.292Z,4.80
2018-05-06T05:29:04.277Z,5.90
2018-05-06T05:30:04.266Z,6.90
2018-05-06T05:31:04.252Z,6.60
2018-05-06T05:32:04.250Z,6.80
2018-05-06T05:33:04.221Z,6.00
2018-05-06T05:34:04.221Z,4.90
2018-05-06T05:35:04.194Z,5.60
2018-05-06T05:36:04.177Z,6.60
2018-05-06T05:37:04.181Z,7.20
2018-05-06T05:38:04.151Z,6.50
2018-05-06T05:39:04.136Z,6.90
2018-05-06T05:40:04.117Z,6.20
2018-05-06T05:41:04.112Z,7.20
2018-05-06T05:42:04.110Z,6.50
2018-05-06T05:43:04.080Z,6.30
2018-05-06T05:44:04.084Z,6.30
2018-05-06T05:45:04.053Z,6.40
2018-05-06T05:46:04.038Z,6.50
2018-05-06T05:47:04.038Z,4.90
2018-05-06T05:48:04.026Z,8.40
2018-05-06T05:49:03.997Z,6.60
2018-05-06T05:50:03.982Z,5.90
2018-05-06T05:51:03.965Z,5.00
2018-05-06T05:52:03.956Z,7.00
2018-05-06T05:53:03.942Z,5.10
2018-05-06T05:54:03.944Z,4.50
2018-05-06T05:55:03.912Z,5.10
2018-05-06T05:56:03.900Z,5.90
2018-05-06T05:57:03.891Z,5.40
2018-05-06T05:58:03.887Z,5.50
2018-05-06T05:59:03.857Z,6.60
2018-05-06T06:00:03.860Z,5.90
2018-05-06T06:01:03.834Z,6.10
2018-05-06T06:02:03.819Z,7.30
2018-05-06T06:03:03.804Z,4.80
2018-05-06T06:04:03.810Z,7.40
2018-05-06T06:05:03.775Z,6.10
2018-05-06T06:06:03.761Z,7.00
2018-05-06T06:07:03.752Z,6.20
2018-05-06T06:08:03.738Z,4.40
2018-05-06T06:09:03.738Z,6.40
2018-05-06T06:10:03.711Z,8.00
2018-05-06T06:11:03.698Z,5.40
2018-05-06T06:12:03.685Z,5.20
2018-05-06T06:13:03.675Z,6.20
2018-05-06T06:14:03.682Z,8.90
2018-05-06T06:15:03.657Z,5.90
2018-05-06T06:16:03.629Z,5.00
2018-05-06T06:17:03.618Z,5.60
2018-05-06T06:18:03.608Z,5.00
2018-05-06T06:19:03.590Z,4.80
2018-05-06T06:20:03.594Z,5.50
2018-05-06T06:21:03.566Z,4.50
2018-05-06T06:22:03.585Z,4.00
2018-05-06T06:23:03.544Z,5.40
2018-05-06T06:24:03.528Z,6.20
2018-05-06T06:25:03.527Z,5.30
2018-05-06T06:26:03.499Z,6.40
2018-05-06T06:27:03.490Z,5.00
2018-05-06T06:28:03.489Z,4.20
2018-05-06T06:29:03.462Z,5.50
2018-05-06T06:30:03.447Z,5.10
2018-05-06T06:31:03.434Z,4.60
2018-05-06T06:32:03.424Z,4.00
2018-05-06T06:33:03.506Z,4.10
2018-05-06T06:34:03.396Z,5.10
2018-05-06T06:35:03.387Z,3.90
2018-05-06T06:36:03.371Z,5.40
2018-05-06T06:37:03.358Z,4.20
2018-05-06T06:38:03.346Z,5.40
2018-05-06T06:39:03.348Z,3.80
2018-05-06T06:40:03.320Z,4.60
2018-05-06T06:41:03.307Z,4.50
2018-05-06T06:42:03.295Z,6.10
2018-05-06T06:43:03.282Z,4.80
2018-05-06T06:44:03.271Z,3.90
2018-05-06T06:45:03.275Z,5.30
2018-05-06T06:46:04.303Z,6.30
2018-05-06T06:47:03.249Z,5.00
2018-05-06T06:48:03.246Z,4.90
2018-05-06T06:49:03.208Z,5.10
2018-05-06T06:50:03.197Z,5.10
2018-05-06T06:51:03.201Z,4.30
2018-05-06T06:52:03.177Z,5.20
2018-05-06T06:53:03.155Z,4.60
2018-05-06T06:54:03.141Z,5.10
2018-05-06T06:55:03.148Z,4.10
2018-05-06T06:56:03.119Z,4.50
2018-05-06T06:57:03.103Z,4.80
2018-05-06T06:58:03.094Z,4.20
2018-05-06T06:59:03.080Z,4.60
2018-05-06T07:00:03.069Z,4.60
2018-05-06T07:01:03.075Z,5.30
2018-05-06T07:02:03.046Z,4.70
2018-05-06T07:03:03.028Z,6.30
2018-05-06T07:04:03.019Z,4.90
2018-05-06T07:05:03.027Z,5.10
2018-05-06T07:06:02.991Z,6.10
2018-05-06T07:07:02.980Z,3.60
2018-05-06T07:08:02.972Z,5.90
2018-05-06T07:09:02.956Z,6.40
2018-05-06T07:10:02.960Z,4.30
2018-05-06T07:11:02.929Z,4.70
2018-05-06T07:12:02.921Z,5.60
2018-05-06T07:13:02.913Z,5.60
2018-05-06T07:14:02.897Z,4.10
2018-05-06T07:15:02.970Z,5.60
2018-05-06T07:16:02.873Z,3.80
2018-05-06T07:17:02.858Z,4.40
2018-05-06T07:18:02.920Z,5.50
2018-05-06T07:19:02.836Z,3.40
2018-05-06T07:20:02.825Z,3.00
2018-05-06T07:21:02.813Z,6.10
2018-05-06T07:22:02.815Z,5.00
2018-05-06T07:23:02.794Z,3.70
2018-05-06T07:24:02.777Z,4.20
2018-05-06T07:25:02.767Z,4.80
2018-05-06T07:26:02.766Z,4.00
2018-05-06T07:27:02.741Z,4.50
2018-05-06T07:28:02.728Z,4.10
2018-05-06T07:29:02.730Z,3.10
2018-05-06T07:30:02.706Z,4.30
2018-05-06T07:31:02.711Z,3.20
2018-05-06T07:32:02.681Z,5.50
2018-05-06T07:33:02.691Z,4.20
2018-05-06T07:34:02.658Z,3.70
2018-05-06T07:35:02.647Z,3.60
2018-05-06T07:36:02.634Z,4.20
2018-05-06T07:37:02.635Z,4.20
2018-05-06T07:38:02.613Z,3.60
2018-05-06T07:39:02.600Z,6.80
2018-05-06T07:40:02.597Z,4.40
2018-05-06T07:41:02.602Z,4.80
2018-05-06T07:42:02.599Z,5.00
2018-05-06T07:43:02.552Z,5.10
2018-05-06T07:44:02.543Z,9.40
2018-05-06T07:45:02.530Z,4.60
2018-05-06T07:46:02.519Z,5.20
2018-05-06T07:47:02.501Z,4.00
2018-05-06T07:48:02.504Z,3.20
2018-05-06T07:49:02.566Z,4.10
2018-05-06T07:50:02.469Z,4.70
2018-05-06T07:51:02.459Z,3.50
2018-05-06T07:52:02.447Z,4.00
2018-05-06T07:53:02.452Z,3.60
2018-05-06T07:54:02.425Z,4.30
2018-05-06T07:55:02.412Z,4.60
2018-05-06T07:56:02.400Z,4.10
2018-05-06T07:57:02.389Z,3.10
2018-05-06T07:58:02.380Z,5.10
2018-05-06T07:59:02.382Z,4.40
2018-05-06T08:00:02.367Z,3.90
2018-05-06T08:01:02.344Z,3.80
2018-05-06T08:02:02.328Z,4.50
2018-05-06T08:03:02.322Z,3.80
2018-05-06T08:04:02.309Z,5.10
2018-05-06T08:05:02.312Z,5.50
2018-05-06T08:06:02.287Z,3.50
2018-05-06T08:07:02.276Z,3.40
2018-05-06T08:08:02.267Z,3.30
2018-05-06T08:09:02.292Z,3.70
2018-05-06T08:10:02.252Z,3.10
2018-05-06T08:11:02.249Z,5.30
2018-05-06T08:12:02.221Z,3.30
2018-05-06T08:13:02.206Z,3.80
2018-05-06T08:14:02.196Z,2.90
2018-05-06T08:15:02.183Z,3.50
2018-05-06T08:16:02.172Z,3.30
2018-05-06T08:17:02.191Z,2.70
2018-05-06T08:18:02.151Z,3.10
2018-05-06T08:19:02.139Z,4.30
2018-05-06T08:20:02.130Z,3.90
2018-05-06T08:21:02.119Z,3.50
2018-05-06T08:22:02.126Z,4.60
2018-05-06T08:23:02.092Z,4.90
2018-05-06T08:24:02.083Z,5.00
2018-05-06T08:25:02.074Z,3.40
2018-05-06T08:26:02.066Z,3.50
2018-05-06T08:27:02.061Z,4.20
2018-05-06T08:28:02.041Z,4.70
2018-05-06T08:29:02.030Z,3.70
2018-05-06T08:30:02.019Z,3.10
2018-05-06T08:31:02.051Z,3.70
2018-05-06T08:32:02.006Z,3.20
2018-05-06T08:33:02.002Z,2.60
2018-05-06T08:34:01.976Z,3.40
2018-05-06T08:35:01.961Z,3.10
2018-05-06T08:36:01.950Z,3.20
2018-05-06T08:37:01.942Z,4.30
2018-05-06T08:38:01.929Z,4.80
2018-05-06T08:39:01.941Z,6.00
2018-05-06T08:40:01.909Z,3.30
2018-05-06T08:41:01.933Z,3.80
2018-05-06T08:42:01.888Z,5.40
2018-05-06T08:43:01.877Z,4.30
2018-05-06T08:44:01.877Z,4.50
2018-05-06T08:45:01.859Z,4.20
2018-05-06T08:46:01.842Z,3.80
2018-05-06T08:47:01.833Z,3.90
2018-05-06T08:48:01.837Z,4.70
2018-05-06T08:49:01.849Z,4.10
2018-05-06T08:50:01.798Z,3.30
2018-05-06T08:51:01.792Z,2.50
2018-05-06T08:52:01.784Z,5.20
2018-05-06T08:53:01.765Z,3.10
2018-05-06T08:54:01.761Z,3.00
2018-05-06T08:55:01.767Z,4.10
2018-05-06T08:56:01.742Z,3.40
2018-05-06T08:57:01.733Z,5.20
2018-05-06T08:58:01.716Z,4.00
2018-05-06T08:59:01.729Z,4.60
2018-05-06T09:00:01.720Z,5.60
2018-05-06T09:01:01.715Z,4.10
2018-05-06T09:02:01.699Z,3.30
2018-05-06T09:03:01.671Z,4.60
2018-05-06T09:04:01.693Z,3.40
2018-05-06T09:05:01.654Z,5.20
2018-05-06T09:06:01.643Z,3.00
2018-05-06T09:07:01.651Z,3.70
2018-05-06T09:08:01.638Z,4.70
2018-05-06T09:09:01.617Z,3.50
2018-05-06T09:10:01.636Z,3.50
2018-05-06T09:11:01.629Z,4.40
2018-05-06T09:12:01.585Z,4.30
2018-05-06T09:13:01.580Z,5.30
2018-05-06T09:14:01.567Z,4.20
2018-05-06T09:15:01.556Z,3.50
2018-05-06T09:16:01.566Z,4.40
2018-05-06T09:17:01.553Z,4.10
2018-05-06T09:18:01.531Z,4.00
2018-05-06T09:19:01.522Z,3.50
2018-05-06T09:20:01.534Z,3.80
2018-05-06T09:21:01.504Z,3.10
2018-05-06T09:22:01.494Z,3.80
2018-05-06T09:23:01.487Z,4.10
2018-05-06T09:24:01.481Z,3.00
2018-05-06T09:25:01.485Z,4.10
2018-05-06T09:26:01.463Z,4.20
2018-05-06T09:27:01.456Z,3.60
2018-05-06T09:28:01.456Z,2.70
2018-05-06T09:29:01.442Z,2.80
2018-05-06T09:30:01.445Z,3.50
2018-05-06T09:31:01.423Z,5.00
2018-05-06T09:32:01.421Z,4.80
2018-05-06T09:33:01.426Z,2.30
2018-05-06T09:34:01.406Z,3.50
2018-05-06T09:35:01.401Z,3.20
2018-05-06T09:36:01.394Z,6.00
2018-05-06T09:37:01.392Z,3.60
2018-05-06T09:38:01.411Z,3.70
2018-05-06T09:39:01.383Z,3.50
2018-05-06T09:40:01.378Z,3.00
2018-05-06T09:41:01.381Z,3.00
2018-05-06T09:42:01.376Z,3.80
2018-05-06T09:43:01.375Z,3.10
2018-05-06T09:44:01.381Z,3.20
2018-05-06T09:45:01.380Z,4.30
2018-05-06T09:46:01.363Z,3.00
2018-05-06T09:47:01.365Z,4.00
2018-05-06T09:48:01.362Z,2.60
2018-05-06T09:49:01.358Z,4.00
2018-05-06T09:50:01.372Z,4.60
2018-05-06T09:51:01.374Z,3.00
2018-05-06T09:52:01.356Z,4.50
2018-05-06T09:53:01.356Z,4.20
2018-05-06T09:54:01.354Z,3.40
2018-05-06T09:55:01.359Z,4.50
2018-05-06T09:56:01.354Z,4.20
2018-05-06T09:57:01.374Z,4.50
2018-05-06T09:58:01.355Z,3.00
2018-05-06T09:59:01.365Z,3.20
2018-05-06T10:00:01.357Z,4.20
2018-05-06T10:01:01.371Z,4.00
2018-05-06T10:02:01.355Z,2.70
2018-05-06T10:03:01.354Z,4.00
2018-05-06T10:04:01.358Z,4.90
2018-05-06T10:05:01.357Z,3.80
2018-05-06T10:06:01.377Z,4.40
2018-05-06T10:07:01.377Z,3.80
2018-05-06T10:08:01.362Z,3.80
2018-05-06T10:09:01.363Z,4.20
2018-05-06T10:10:01.363Z,3.00
2018-05-06T10:11:01.371Z,4.00
2018-05-06T10:12:01.383Z,2.80
2018-05-06T10:13:01.371Z,4.60
2018-05-06T10:14:01.373Z,4.50
2018-05-06T10:15:01.376Z,4.50
2018-05-06T10:16:01.378Z,2.20
2018-05-06T10:17:01.408Z,3.00
2018-05-06T10:18:01.385Z,5.50
2018-05-06T10:19:01.386Z,4.20
2018-05-06T10:20:01.386Z,3.10
2018-05-06T10:21:01.389Z,6.80
2018-05-06T10:22:01.395Z,4.40
2018-05-06T10:23:01.406Z,4.40
2018-05-06T10:24:01.398Z,3.10
2018-05-06T10:25:01.412Z,4.10
2018-05-06T10:26:02.936Z,4.00
2018-05-06T10:27:01.408Z,3.80
2018-05-06T10:28:01.445Z,4.60
2018-05-06T10:29:01.438Z,4.50
2018-05-06T10:30:01.418Z,3.20
2018-05-06T10:31:01.421Z,3.10
2018-05-06T10:32:01.436Z,3.10
2018-05-06T10:33:01.428Z,4.10
2018-05-06T10:34:01.433Z,3.10
2018-05-06T10:36:33.499Z,4.00
2018-05-06T10:37:33.500Z,4.10
2018-05-06T10:38:33.520Z,4.30
2018-05-06T10:39:33.495Z,4.90
2018-05-06T10:40:33.513Z,3.90
2018-05-06T10:41:33.506Z,4.50
2018-05-06T10:42:33.509Z,4.60
2018-05-06T10:43:33.509Z,3.70
2018-05-06T10:44:33.599Z,5.10
2018-05-06T10:45:33.533Z,3.20
2018-05-06T10:46:33.526Z,5.10
2018-05-06T10:47:33.526Z,2.90
2018-05-06T10:48:33.536Z,3.40
2018-05-06T10:49:33.534Z,3.00
2018-05-06T10:50:33.553Z,3.50
2018-05-06T10:51:33.550Z,3.20
2018-05-06T10:52:33.550Z,5.20
2018-05-06T10:53:33.555Z,3.40
2018-05-06T10:54:33.563Z,4.10
2018-05-06T10:55:33.584Z,3.60
2018-05-06T10:56:33.591Z,4.90
2018-05-06T10:57:33.571Z,3.50
2018-05-06T10:58:33.579Z,2.60
2018-05-06T10:59:33.585Z,3.60
2018-05-06T11:00:33.584Z,3.60
2018-05-06T11:01:33.608Z,3.10
2018-05-06T11:02:33.610Z,4.40
2018-05-06T11:03:33.601Z,4.10
2018-05-06T11:04:33.604Z,3.00
2018-05-06T11:05:33.611Z,3.50
2018-05-06T11:06:33.615Z,2.30
2018-05-06T11:07:33.640Z,3.70
2018-05-06T11:08:33.627Z,4.20
2018-05-06T11:09:33.624Z,4.00
2018-05-06T11:10:33.640Z,3.30
2018-05-06T11:11:33.659Z,4.10
2018-05-06T11:12:33.645Z,2.90
2018-05-06T11:13:33.651Z,3.90
2018-05-06T11:14:33.651Z,3.60
2018-05-06T11:15:33.663Z,2.20
2018-05-06T11:16:33.684Z,4.30
2018-05-06T11:17:33.672Z,2.30
2018-05-06T11:18:33.677Z,1.70
2018-05-06T11:19:33.685Z,2.00
2018-05-06T11:20:33.702Z,1.80
2018-05-06T11:21:33.712Z,3.00
2018-05-06T11:22:33.697Z,3.20
2018-05-06T11:23:33.705Z,2.90
2018-05-06T11:24:33.712Z,2.70
2018-05-06T11:25:33.712Z,2.70
2018-05-06T11:26:33.734Z,2.60
2018-05-06T11:27:33.742Z,3.30
2018-05-06T11:28:33.731Z,3.00
2018-05-06T11:29:33.735Z,2.60
2018-05-06T11:30:33.743Z,3.00
2018-05-06T11:31:33.751Z,3.00
2018-05-06T11:32:33.767Z,2.70
2018-05-06T11:33:33.756Z,3.10
2018-05-06T11:34:33.765Z,4.50
2018-05-06T11:35:33.787Z,5.00
2018-05-06T11:36:33.774Z,2.60
2018-05-06T11:37:33.780Z,2.60
2018-05-06T11:38:33.785Z,2.20
2018-05-06T11:39:33.787Z,2.90
2018-05-06T11:40:33.814Z,2.70
2018-05-06T11:41:33.802Z,2.80
2018-05-06T11:42:33.811Z,3.00
2018-05-06T11:43:33.813Z,3.50
2018-05-06T11:44:33.820Z,3.00
2018-05-06T11:45:33.840Z,4.20
2018-05-06T11:46:33.846Z,2.80
2018-05-06T11:47:33.838Z,3.00
2018-05-06T11:48:33.837Z,2.70
2018-05-06T11:49:34.636Z,2.80
2018-05-06T11:50:33.853Z,2.80
2018-05-06T11:51:33.873Z,2.80
2018-05-06T11:52:33.866Z,4.90
2018-05-06T11:53:33.885Z,2.90
2018-05-06T11:54:33.876Z,2.90
2018-05-06T11:55:33.881Z,3.50
2018-05-06T11:56:33.889Z,3.30
2018-05-06T11:57:33.891Z,3.80
2018-05-06T11:58:33.914Z,3.50
2018-05-06T11:59:33.904Z,1.80
2018-05-06T12:00:33.913Z,3.80
2018-05-06T12:01:33.914Z,3.70
2018-05-06T12:02:33.918Z,3.70
2018-05-06T12:03:33.948Z,4.00
2018-05-06T12:04:33.934Z,3.80
2018-05-06T12:05:33.933Z,2.50
2018-05-06T12:06:33.946Z,2.80
2018-05-06T12:07:33.949Z,2.20
2018-05-06T12:08:33.969Z,2.10
2018-05-06T12:09:33.979Z,3.10
2018-05-06T12:10:33.965Z,3.10
2018-05-06T12:11:33.968Z,3.30
2018-05-06T12:12:33.979Z,2.00
2018-05-06T12:13:33.982Z,4.70
2018-05-06T12:14:34.003Z,3.30
2018-05-06T12:15:34.008Z,3.20
2018-05-06T12:16:33.994Z,2.40
2018-05-06T12:17:34.004Z,2.40
2018-05-06T12:18:34.010Z,2.60
2018-05-06T12:19:34.027Z,3.50
2018-05-06T12:20:34.036Z,5.80
2018-05-06T12:21:34.024Z,3.80
2018-05-06T12:22:34.027Z,2.80
2018-05-06T12:23:34.036Z,3.40
2018-05-06T12:24:34.042Z,3.40
2018-05-06T12:25:34.062Z,3.00
2018-05-06T12:26:34.050Z,2.20
2018-05-06T12:27:34.060Z,3.20
2018-05-06T12:28:34.061Z,2.00
2018-05-06T12:29:34.068Z,2.60
2018-05-06T12:30:34.087Z,3.10
2018-05-06T12:31:34.089Z,2.00
2018-05-06T12:32:34.097Z,2.80
2018-05-06T12:33:34.147Z,1.90
2018-05-06T12:34:34.092Z,2.10
2018-05-06T12:35:34.095Z,3.80
2018-05-06T12:36:34.100Z,2.20
2018-05-06T12:37:34.122Z,2.70
2018-05-06T12:38:34.109Z,2.50
2018-05-06T12:39:34.113Z,4.30
2018-05-06T12:40:34.117Z,2.40
2018-05-06T12:41:34.143Z,2.50
2018-05-06T12:42:34.125Z,3.30
2018-05-06T12:43:34.128Z,2.80
2018-05-06T12:44:34.135Z,2.70
2018-05-06T12:45:34.141Z,2.90
2018-05-06T12:46:34.682Z,2.20
2018-05-06T12:47:34.145Z,2.70
2018-05-06T12:48:34.164Z,3.90
2018-05-06T12:49:34.236Z,3.00
2018-05-06T12:50:34.169Z,2.80
2018-05-06T12:51:34.158Z,2.50
2018-05-06T12:52:34.160Z,1.80
2018-05-06T12:53:34.181Z,2.80
2018-05-06T12:54:34.168Z,3.00
2018-05-06T12:55:34.183Z,1.60
2018-05-06T12:56:34.175Z,2.10
2018-05-06T12:57:34.173Z,2.20
2018-05-06T12:58:34.177Z,3.00
2018-05-06T12:59:34.184Z,1.70
2018-05-06T13:00:34.204Z,2.40
2018-05-06T13:01:34.182Z,2.00
2018-05-06T13:02:34.187Z,3.80
2018-05-06T13:03:34.191Z,2.70
2018-05-06T13:04:34.193Z,2.90
2018-05-06T13:05:34.215Z,3.20
2018-05-06T13:06:34.217Z,3.40
2018-05-06T13:07:34.198Z,2.20
2018-05-06T13:08:34.205Z,1.60
2018-05-06T13:09:34.209Z,2.20
2018-05-06T13:10:34.216Z,2.10
2018-05-06T13:11:34.231Z,3.00
2018-05-06T13:12:34.209Z,1.80
2018-05-06T13:13:34.212Z,4.50
2018-05-06T13:14:34.225Z,2.60
2018-05-06T13:15:34.219Z,2.20
2018-05-06T13:16:34.224Z,2.30
2018-05-06T13:17:34.238Z,2.50
2018-05-06T13:18:34.232Z,2.20
2018-05-06T13:19:34.229Z,3.80